METAR Data
IDs: Format: Raw Decoded Include TAF

Data at: 0239 UTC 25 Feb 2021

WSSL 250200Z 01007KT 340V040 CAVOK 28/22 Q1010